Time;durP1;ratioP1;P1;durP2;ratioP2;P2;SDS_P1;SDS_P2;PMS_P1;PMS_P2;Temp;Humidity;BMP_temperature;BMP_pressure;BME280_temperature;BME280_humidity;BME280_pressure;Samples;Min_cycle;Max_cycle;Signal;HPM_P1;HPM_P2
2022/07/29 00:01:22;;;;;;;6.90;2.70;;;;;;;16.57;66.46;101483.97;5032799;28;20140;-76
2022/07/29 00:03:48;;;;;;;9.13;2.80;;;;;;;16.56;68.63;101487.69;5033440;28;20020;-76
2022/07/29 00:06:15;;;;;;;7.70;2.50;;;;;;;16.53;67.16;101496.97;5029238;28;20067;-76
2022/07/29 00:08:40;;;;;;;9.48;2.55;;;;;;;16.53;66.35;101501.53;5033389;28;20027;-76
2022/07/29 00:11:05;;;;;;;11.00;3.10;;;;;;;16.50;65.93;101497.25;5032711;28;20389;-76
2022/07/29 00:13:31;;;;;;;7.95;2.75;;;;;;;16.51;67.42;101492.66;5032487;28;20025;-76
2022/07/29 00:15:56;;;;;;;8.43;3.08;;;;;;;16.49;66.96;101489.25;5027281;28;20034;-76
2022/07/29 00:18:21;;;;;;;8.52;2.90;;;;;;;16.48;66.40;101488.38;5031166;28;20026;-76
2022/07/29 00:20:46;;;;;;;8.30;3.00;;;;;;;16.49;68.32;101489.25;5027258;28;20049;-76
2022/07/29 00:23:12;;;;;;;10.98;3.22;;;;;;;16.47;66.83;101493.94;5033039;28;20025;-76
2022/07/29 00:25:37;;;;;;;10.15;3.20;;;;;;;16.48;67.23;101490.22;5033633;28;20040;-76
2022/07/29 00:28:02;;;;;;;6.22;2.90;;;;;;;16.49;67.93;101489.25;5032829;28;20215;-76
2022/07/29 00:30:28;;;;;;;7.53;2.60;;;;;;;16.49;66.33;101487.38;5034399;28;20045;-76
2022/07/29 00:32:53;;;;;;;9.95;3.00;;;;;;;16.49;66.37;101497.38;5032889;28;20030;-76
2022/07/29 00:38:02;;;;;;;10.65;3.15;;;;;;;16.46;66.62;101492.19;5034153;28;20496;-76
2022/07/29 00:40:28;;;;;;;9.38;3.15;;;;;;;16.44;67.31;101497.75;5032104;28;20025;-76
2022/07/29 00:42:53;;;;;;;8.13;2.65;;;;;;;16.44;67.48;101505.91;5032553;28;20025;-76
2022/07/29 00:45:19;;;;;;;6.30;2.90;;;;;;;16.41;67.56;101517.03;5032914;28;20029;-76
2022/07/29 00:47:44;;;;;;;8.30;2.80;;;;;;;16.40;68.25;101521.59;5031308;28;20224;-76
2022/07/29 00:50:11;;;;;;;7.75;3.25;;;;;;;16.42;67.89;101526.91;5032167;28;20036;-76
2022/07/29 00:52:38;;;;;;;11.57;3.20;;;;;;;16.41;67.45;101517.91;5032630;28;20116;-76
2022/07/29 00:55:05;;;;;;;13.02;3.75;;;;;;;16.43;67.55;101507.78;5031972;28;20095;-76
2022/07/29 00:57:31;;;;;;;8.80;2.90;;;;;;;16.48;66.43;101511.94;5031765;28;20029;-76
2022/07/29 00:59:57;;;;;;;5.32;2.80;;;;;;;16.50;68.40;101491.81;5033481;28;20396;-76
2022/07/29 01:02:22;;;;;;;12.10;3.45;;;;;;;16.53;71.94;101490.66;5031956;28;20120;-75
2022/07/29 01:04:48;;;;;;;8.57;2.92;;;;;;;16.50;70.47;101496.38;5032360;28;20025;-74
2022/07/29 01:07:15;;;;;;;9.23;3.38;;;;;;;16.50;71.29;101480.09;5030369;28;20390;-74
2022/07/29 01:09:42;;;;;;;5.85;2.85;;;;;;;16.42;71.63;101457.22;5033178;28;20851;-75
2022/07/29 01:12:07;;;;;;;8.05;3.03;;;;;;;16.33;72.21;101458.03;5033032;28;20032;-74
2022/07/29 01:14:34;;;;;;;10.35;3.15;;;;;;;16.27;75.41;101453.16;5032744;28;20030;-74
2022/07/29 01:17:11;;;;;;;10.52;3.63;;;;;;;16.19;74.26;101453.84;5033296;28;20477;-74
2022/07/29 01:19:57;;;;;;;10.90;3.10;;;;;;;16.15;73.85;101433.41;5017751;28;20121;-74
2022/07/29 01:22:35;;;;;;;8.65;3.47;;;;;;;16.08;73.56;101433.06;5031043;28;20497;-74
2022/07/29 01:25:16;;;;;;;9.65;3.15;;;;;;;16.06;73.28;101420.63;5031528;28;20025;-74
2022/07/29 01:28:01;;;;;;;6.15;2.78;;;;;;;16.03;72.84;101410.94;5030919;28;20067;-74
2022/07/29 01:30:28;;;;;;;10.20;3.25;;;;;;;16.04;71.23;101409.91;5028555;28;20034;-74
2022/07/29 01:32:58;;;;;;;10.68;3.33;;;;;;;16.07;72.57;101397.94;5028021;28;20026;-74
2022/07/29 01:35:28;;;;;;;11.10;3.60;;;;;;;16.08;72.89;101400.53;5033460;28;20132;-74
2022/07/29 01:38:08;;;;;;;11.63;3.53;;;;;;;16.07;73.17;101398.78;5032898;28;20052;-74
2022/07/29 01:40:42;;;;;;;12.88;3.90;;;;;;;16.07;73.58;101397.94;5032085;28;20448;-74
2022/07/29 01:43:14;;;;;;;8.85;3.50;;;;;;;16.06;73.35;101402.53;5031674;28;20087;-74
2022/07/29 01:45:44;;;;;;;8.82;3.28;;;;;;;16.07;72.69;101404.22;5015887;28;20109;-74
2022/07/29 01:48:23;;;;;;;7.43;3.13;;;;;;;16.10;73.27;101410.38;5020054;28;20029;-74
2022/07/29 01:50:51;;;;;;;9.48;3.58;;;;;;;16.11;74.17;101406.69;5019324;28;20037;-74
2022/07/29 01:53:28;;;;;;;6.28;3.22;;;;;;;16.11;73.87;101409.41;5029438;28;20057;-74
2022/07/29 01:55:56;;;;;;;12.18;3.65;;;;;;;16.08;73.83;101414.09;5032741;28;20104;-74
2022/07/29 01:58:22;;;;;;;11.25;3.60;;;;;;;16.03;74.58;101410.94;5030357;28;20017;-74
2022/07/29 02:00:50;;;;;;;10.30;3.20;;;;;;;16.00;72.86;101415.75;5025231;28;20056;-74
2022/07/29 02:03:17;;;;;;;10.82;3.42;;;;;;;15.97;75.31;101410.59;5020265;28;20465;-74
2022/07/29 02:05:46;;;;;;;10.05;3.28;;;;;;;15.91;74.96;101412.00;5031811;28;20151;-74
2022/07/29 02:08:13;;;;;;;10.45;3.35;;;;;;;15.90;72.92;101400.28;5030791;28;20021;-74
2022/07/29 02:10:40;;;;;;;11.65;3.13;;;;;;;15.89;73.38;101405.84;5030852;28;20040;-74
2022/07/29 02:13:07;;;;;;;10.35;3.53;;;;;;;15.86;74.75;101398.00;5029892;28;20037;-74
2022/07/29 02:15:34;;;;;;;13.35;3.72;;;;;;;15.84;74.13;101398.13;5030964;28;20086;-74
2022/07/29 02:18:09;;;;;;;8.43;3.30;;;;;;;15.85;73.68;101398.97;5030653;28;20021;-74
2022/07/29 02:20:36;;;;;;;13.90;3.30;;;;;;;15.84;73.85;101398.13;5027534;28;20021;-74
2022/07/29 02:23:02;;;;;;;9.38;3.03;;;;;;;15.84;74.94;101386.41;5030515;28;20029;-74
2022/07/29 02:25:29;;;;;;;8.25;2.88;;;;;;;15.83;75.48;101390.13;5019470;28;20474;-74
2022/07/29 02:27:55;;;;;;;8.35;3.10;;;;;;;15.82;74.99;101391.13;5031837;28;20026;-74
2022/07/29 02:30:22;;;;;;;14.45;3.65;;;;;;;15.81;75.28;101386.69;5029746;28;20104;-74
2022/07/29 02:32:50;;;;;;;8.63;3.00;;;;;;;15.77;74.35;101396.03;5031749;28;20042;-74
2022/07/29 02:35:18;;;;;;;11.82;3.55;;;;;;;15.73;75.27;101398.16;5031840;28;20059;-74
2022/07/29 02:37:45;;;;;;;10.35;3.05;;;;;;;15.69;74.69;101397.53;5031969;28;20036;-74
2022/07/29 02:40:14;;;;;;;13.98;3.22;;;;;;;15.67;75.33;101391.41;5030075;28;20029;-74
2022/07/29 02:42:41;;;;;;;;;;;;;;;15.73;73.33;101384.59;5032266;28;20264;-74
2022/07/29 02:45:07;;;;;;;9.48;3.22;;;;;;;15.61;74.35;101389.25;5031848;28;19909;-74
2022/07/29 02:47:49;;;;;;;17.40;3.72;;;;;;;15.60;74.64;101379.38;5031747;28;20493;-74
2022/07/29 02:50:23;;;;;;;8.93;3.42;;;;;;;15.58;74.76;101386.78;5029646;28;20028;-74
2022/07/29 02:53:16;;;;;;;11.48;4.03;;;;;;;15.59;74.11;101385.78;5032066;28;20041;-74
2022/07/29 02:55:51;;;;;;;10.15;3.78;;;;;;;15.56;77.00;101391.47;5030578;28;20057;-74
2022/07/29 02:58:22;;;;;;;9.27;3.58;;;;;;;15.53;77.68;101399.88;5030804;28;20079;-74
2022/07/29 03:00:50;;;;;;;16.75;4.15;;;;;;;15.48;77.43;101394.00;5029812;28;20041;-74
2022/07/29 03:03:21;;;;;;;9.25;3.80;;;;;;;15.45;78.20;101389.69;5031553;28;20393;-74
2022/07/29 03:05:46;;;;;;;8.93;3.42;;;;;;;15.43;77.86;101393.53;5030086;28;20028;-74
2022/07/29 03:08:12;;;;;;;12.82;3.80;;;;;;;15.40;78.31;101401.91;5031693;28;20470;-74
2022/07/29 03:10:42;;;;;;;13.88;4.00;;;;;;;15.36;78.90;101409.44;5029769;28;20168;-74
2022/07/29 03:13:09;;;;;;;11.65;3.83;;;;;;;15.35;78.42;101413.97;5031598;28;20091;-74
2022/07/29 03:15:35;;;;;;;10.63;4.00;;;;;;;15.33;78.97;101412.38;5031404;28;20057;-74
2022/07/29 03:18:01;;;;;;;13.77;4.28;;;;;;;15.32;79.04;101411.53;5030228;28;20036;-74
2022/07/29 03:20:26;;;;;;;11.48;4.15;;;;;;;15.30;78.81;101412.66;5031827;28;20025;-74
2022/07/29 03:22:51;;;;;;;13.27;4.05;;;;;;;15.30;79.14;101408.13;5035723;28;20075;-74
2022/07/29 03:25:19;;;;;;;11.65;3.70;;;;;;;15.26;79.47;101398.53;5034245;28;20024;-74
2022/07/29 03:27:46;;;;;;;16.77;4.43;;;;;;;15.23;78.92;101393.38;5034165;28;20052;-74
2022/07/29 03:30:12;;;;;;;10.50;4.40;;;;;;;15.21;78.74;101395.34;5033001;28;20033;-74
2022/07/29 03:32:38;;;;;;;14.02;3.90;;;;;;;15.18;79.68;101395.59;5035181;28;20033;-74
2022/07/29 03:35:04;;;;;;;14.05;3.80;;;;;;;15.17;80.73;101392.03;5035446;28;20084;-74
2022/07/29 03:37:30;;;;;;;11.02;4.13;;;;;;;15.17;79.78;101388.47;5033537;28;20465;-74
2022/07/29 03:39:57;;;;;;;12.52;4.00;;;;;;;15.16;79.23;101386.75;5033556;28;20029;-74
2022/07/29 03:42:25;;;;;;;13.40;4.20;;;;;;;15.12;79.45;101386.13;5034317;28;20025;-74
2022/07/29 03:44:54;;;;;;;9.40;3.95;;;;;;;15.11;79.23;101394.38;5035226;28;20025;-74
2022/07/29 03:47:25;;;;;;;13.13;3.97;;;;;;;15.08;77.82;101391.94;5014164;28;20080;-74
2022/07/29 03:49:53;;;;;;;11.75;3.85;;;;;;;15.05;77.72;101394.91;5019045;28;20036;-74
2022/07/29 03:52:20;;;;;;;11.20;3.47;;;;;;;15.02;77.42;101396.91;5034913;28;20493;-74
2022/07/29 03:54:45;;;;;;;18.10;4.85;;;;;;;14.97;77.27;101400.97;5033805;28;20032;-74
2022/07/29 03:57:12;;;;;;;15.10;3.92;;;;;;;14.92;77.93;101390.53;5033603;28;20029;-74
2022/07/29 03:59:39;;;;;;;12.18;3.78;;;;;;;14.87;78.39;101390.03;5034545;28;20040;-74
2022/07/29 04:02:08;;;;;;;12.40;4.35;;;;;;;14.81;78.63;101394.09;5031893;28;20029;-74
2022/07/29 04:04:36;;;;;;;12.68;3.80;;;;;;;14.76;78.98;101393.66;5013836;28;20030;-74
2022/07/29 04:07:02;;;;;;;9.15;3.75;;;;;;;14.74;79.14;101398.31;5033397;28;20060;-74
2022/07/29 04:09:28;;;;;;;11.30;3.75;;;;;;;14.70;79.72;101383.34;5034070;28;20033;-74
2022/07/29 04:11:53;;;;;;;13.10;4.13;;;;;;;14.72;79.99;101377.81;5031740;28;20025;-74
2022/07/29 04:14:19;;;;;;;16.25;4.70;;;;;;;14.71;80.18;101374.22;5033249;28;20029;-74
2022/07/29 04:16:44;;;;;;;10.75;3.75;;;;;;;14.72;80.08;101378.66;5033142;28;20021;-74
2022/07/29 04:19:09;;;;;;;10.93;3.90;;;;;;;14.72;80.01;101375.09;5017540;28;20414;-74
2022/07/29 04:21:39;;;;;;;11.07;3.90;;;;;;;14.73;79.99;101376.78;5015516;28;20026;-74
2022/07/29 04:24:04;;;;;;;13.13;3.65;;;;;;;14.73;80.08;101372.25;5015223;28;20040;-74
2022/07/29 04:26:30;;;;;;;12.40;4.10;;;;;;;14.76;78.61;101373.81;5029049;28;20543;-74
2022/07/29 04:28:55;;;;;;;11.23;3.30;;;;;;;14.80;78.82;101373.47;5031800;28;20046;-74
2022/07/29 04:31:20;;;;;;;12.43;3.95;;;;;;;14.83;78.66;101372.34;5032500;28;20040;-74
2022/07/29 04:33:47;;;;;;;9.65;3.75;;;;;;;14.86;78.12;101377.47;5026384;28;20049;-74
2022/07/29 04:36:12;;;;;;;10.88;3.63;;;;;;;14.88;78.44;101383.66;5032893;28;20032;-74
2022/07/29 04:38:38;;;;;;;9.68;3.70;;;;;;;14.91;79.17;101391.50;5032458;28;20037;-74
2022/07/29 04:41:04;;;;;;;11.80;3.97;;;;;;;14.92;79.73;101398.66;5030854;28;20021;-74
2022/07/29 04:43:29;;;;;;;11.85;3.97;;;;;;;14.93;80.23;101405.75;5032199;28;20036;-74
2022/07/29 04:45:55;;;;;;;12.77;3.90;;;;;;;14.92;80.01;101406.78;5033624;28;20031;-74
2022/07/29 04:48:20;;;;;;;14.85;4.07;;;;;;;14.94;80.39;101418.31;5033671;28;20079;-74
2022/07/29 04:50:45;;;;;;;12.85;4.35;;;;;;;14.96;80.25;101424.44;5031838;28;20022;-74
2022/07/29 04:53:10;;;;;;;15.35;3.97;;;;;;;14.99;79.77;101416.09;5033855;28;20025;-74
2022/07/29 04:55:36;;;;;;;13.13;4.88;;;;;;;15.01;80.61;101413.28;5031539;28;20397;-73
2022/07/29 04:58:01;;;;;;;21.13;5.65;;;;;;;15.03;80.60;101427.53;5032441;28;20029;-73
2022/07/29 05:00:27;;;;;;;14.38;4.50;;;;;;;15.03;79.32;101435.66;5032609;28;20025;-73
2022/07/29 05:02:52;;;;;;;15.98;4.47;;;;;;;15.07;79.54;101442.53;5030922;28;20033;-73
2022/07/29 05:05:17;;;;;;;12.50;4.38;;;;;;;15.09;79.73;101439.69;5031994;28;20057;-73
2022/07/29 05:07:43;;;;;;;11.20;3.88;;;;;;;15.11;80.76;101437.69;5033166;28;20029;-73
2022/07/29 05:10:08;;;;;;;13.10;4.55;;;;;;;15.12;79.52;101442.13;5027823;28;20022;-74
2022/07/29 05:12:34;;;;;;;15.60;4.50;;;;;;;15.14;79.13;101446.44;5030008;28;20037;-74
2022/07/29 05:14:59;;;;;;;14.45;4.85;;;;;;;15.16;79.18;101446.31;5033119;28;20071;-74
2022/07/29 05:17:24;;;;;;;13.20;5.00;;;;;;;15.17;79.60;101437.22;5033293;28;20034;-74
2022/07/29 05:19:51;;;;;;;16.23;5.70;;;;;;;15.17;79.35;101443.47;5028806;28;20026;-74
2022/07/29 05:22:19;;;;;;;12.20;4.60;;;;;;;15.21;78.82;101444.06;5032123;28;20140;-74
2022/07/29 05:24:45;;;;;;;17.52;5.53;;;;;;;15.23;79.53;101446.66;5032287;28;20036;-74
2022/07/29 05:27:10;;;;;;;14.25;4.75;;;;;;;15.25;79.52;101450.97;5027987;28;20167;-74
2022/07/29 05:29:35;;;;;;;14.98;5.80;;;;;;;15.23;78.81;101452.94;5030514;28;20041;-74
2022/07/29 05:32:01;;;;;;;16.30;5.40;;;;;;;15.24;78.79;101443.81;5017206;28;20094;-74
2022/07/29 05:34:26;;;;;;;16.27;4.60;;;;;;;15.25;78.86;101444.69;5020376;28;20044;-74
2022/07/29 05:36:51;;;;;;;16.80;5.45;;;;;;;15.28;79.61;101447.13;5012114;28;20124;-74
2022/07/29 05:39:16;;;;;;;17.85;4.82;;;;;;;15.29;79.18;101447.00;5012062;28;20028;-74
2022/07/29 05:41:42;;;;;;;14.77;5.18;;;;;;;15.31;79.65;101441.47;5023465;28;20021;-74
2022/07/29 05:44:07;;;;;;;21.30;5.40;;;;;;;15.36;80.10;101441.94;5020586;28;20061;-74
2022/07/29 05:46:32;;;;;;;14.20;4.97;;;;;;;15.37;80.06;101443.66;5013162;28;20037;-74
2022/07/29 05:48:58;;;;;;;14.20;4.95;;;;;;;15.42;79.77;101440.53;5011554;28;20026;-74
2022/07/29 05:51:23;;;;;;;15.55;5.15;;;;;;;15.45;79.89;101443.03;5026067;28;20029;-74
2022/07/29 05:53:48;;;;;;;17.63;5.57;;;;;;;15.45;78.53;101441.16;5029805;28;20057;-74
2022/07/29 05:56:13;;;;;;;16.95;5.40;;;;;;;15.52;78.60;101446.91;5032201;28;20031;-74
2022/07/29 05:58:39;;;;;;;17.75;5.57;;;;;;;15.55;78.19;101441.25;5030503;28;20381;-74
2022/07/29 06:01:04;;;;;;;18.50;5.70;;;;;;;15.60;78.66;101435.44;5031355;28;20053;-74
2022/07/29 06:03:30;;;;;;;16.77;5.38;;;;;;;15.67;78.77;101442.06;5032590;28;20473;-74
2022/07/29 06:05:55;;;;;;;17.55;5.60;;;;;;;15.71;78.87;101446.19;5031908;28;20029;-74
2022/07/29 06:08:21;;;;;;;15.00;5.30;;;;;;;15.72;78.33;101442.50;5031278;28;20045;-75
2022/07/29 06:10:46;;;;;;;14.75;5.13;;;;;;;15.77;77.54;101439.38;5032343;28;20065;-74
2022/07/29 06:13:12;;;;;;;17.88;5.80;;;;;;;15.78;77.47;101438.41;5028774;28;20025;-74
2022/07/29 06:15:38;;;;;;;18.92;5.55;;;;;;;15.83;77.57;101438.91;5029001;28;20033;-74
2022/07/29 06:18:03;;;;;;;16.25;4.95;;;;;;;15.86;77.36;101449.50;5029417;28;20026;-73
2022/07/29 06:20:29;;;;;;;14.85;5.03;;;;;;;15.89;77.53;101454.66;5028793;28;20124;-73
2022/07/29 06:22:55;;;;;;;17.02;5.93;;;;;;;15.91;77.52;101447.22;5030009;28;20083;-73
2022/07/29 06:25:20;;;;;;;18.20;6.18;;;;;;;15.95;77.54;101443.25;5017032;28;20022;-73
2022/07/29 06:27:45;;;;;;;15.15;5.72;;;;;;;15.98;77.39;101443.00;5022195;28;20354;-73
2022/07/29 06:30:11;;;;;;;17.10;6.28;;;;;;;15.99;77.11;101442.00;5027436;28;20397;-73
2022/07/29 06:32:36;;;;;;;15.65;5.70;;;;;;;16.00;77.44;101446.44;5030410;28;20037;-73
2022/07/29 06:35:02;;;;;;;15.98;5.68;;;;;;;16.02;77.27;101447.16;5031079;28;20108;-73
2022/07/29 06:37:27;;;;;;;17.58;6.32;;;;;;;16.03;76.47;101448.88;5028001;28;20040;-73
2022/07/29 06:40:59;;;;;;;16.60;5.90;;;;;;;16.02;77.41;101452.59;5031121;28;20029;-72
2022/07/29 06:42:42;;;;;;;14.40;5.70;;;;;;;16.01;76.68;101453.56;5029370;28;20045;-73
2022/07/29 06:45:08;;;;;;;16.60;5.68;;;;;;;16.01;77.06;101464.41;5029241;28;20071;-73
2022/07/29 06:47:33;;;;;;;15.65;5.75;;;;;;;15.98;77.72;101459.25;5028977;28;20025;-74
2022/07/29 06:49:59;;;;;;;15.75;5.57;;;;;;;15.98;78.06;101451.13;5027008;28;20096;-74
2022/07/29 06:52:25;;;;;;;15.68;6.03;;;;;;;15.96;77.15;101463.09;5011722;28;20026;-74
2022/07/29 06:54:50;;;;;;;15.57;5.85;;;;;;;15.93;77.13;101461.53;5018180;28;20036;-74
2022/07/29 06:57:15;;;;;;;16.50;6.13;;;;;;;15.94;78.20;101467.78;5021429;28;20025;-73
2022/07/29 06:59:41;;;;;;;15.60;5.60;;;;;;;15.95;78.59;101459.53;5029923;28;20568;-73
2022/07/29 07:02:06;;;;;;;17.98;6.22;;;;;;;15.94;77.88;101463.22;5027639;28;20021;-73
2022/07/29 07:04:31;;;;;;;19.33;6.97;;;;;;;15.93;77.21;101468.78;5034692;28;20026;-73
2022/07/29 07:06:57;;;;;;;14.90;5.78;;;;;;;15.93;77.92;101466.94;5012099;28;20026;-73
2022/07/29 07:09:23;;;;;;;15.07;5.95;;;;;;;15.95;77.40;101472.22;5017853;28;20034;-74
2022/07/29 07:11:48;;;;;;;18.23;6.28;;;;;;;16.00;77.79;101467.25;5028045;28;20045;-73
2022/07/29 07:14:13;;;;;;;18.10;6.95;;;;;;;16.07;77.41;101474.72;5030720;28;20025;-73
2022/07/29 07:16:38;;;;;;;19.35;6.68;;;;;;;16.12;77.12;101481.59;5030529;28;20036;-73
2022/07/29 07:19:04;;;;;;;16.25;6.43;;;;;;;16.17;77.55;101471.22;5030143;28;20026;-73
2022/07/29 07:21:29;;;;;;;18.25;6.97;;;;;;;16.25;77.32;101476.81;5014734;28;20501;-73
2022/07/29 07:23:54;;;;;;;18.98;6.28;;;;;;;16.32;76.73;101478.00;5010895;28;20022;-73
2022/07/29 07:26:20;;;;;;;20.02;6.40;;;;;;;16.42;76.14;101476.19;5010787;28;20116;-75
2022/07/29 07:28:45;;;;;;;17.63;6.72;;;;;;;16.50;75.57;101474.66;5011720;28;20053;-75
2022/07/29 07:31:11;;;;;;;15.95;6.30;;;;;;;16.58;76.30;101473.00;5027123;28;20022;-75
2022/07/29 07:33:37;;;;;;;18.83;7.18;;;;;;;16.63;75.22;101475.28;5011780;28;20025;-75
2022/07/29 07:36:02;;;;;;;16.15;6.40;;;;;;;16.68;75.18;101478.47;5011921;28;20157;-75
2022/07/29 07:38:27;;;;;;;16.27;5.72;;;;;;;16.74;74.23;101469.75;5010332;28;20044;-75
2022/07/29 07:40:53;;;;;;;19.58;6.40;;;;;;;16.80;73.68;101481.94;5015848;28;20022;-75
2022/07/29 07:43:18;;;;;;;18.10;6.43;;;;;;;16.88;74.48;101479.44;5031502;28;20029;-75
2022/07/29 07:45:43;;;;;;;20.88;6.60;;;;;;;16.91;73.72;101481.88;5031510;28;20040;-75
2022/07/29 07:48:10;;;;;;;16.77;5.93;;;;;;;16.88;73.71;101476.72;5031374;28;20021;-75
2022/07/29 07:50:35;;;;;;;16.02;6.13;;;;;;;16.91;73.70;101476.44;5020779;28;20084;-75
2022/07/29 07:53:01;;;;;;;20.60;6.25;;;;;;;16.97;73.96;101480.44;5010350;28;20025;-75
2022/07/29 07:55:27;;;;;;;20.13;6.18;;;;;;;17.04;73.86;101481.63;5011973;28;20033;-77
2022/07/29 07:57:54;;;;;;;16.45;6.55;;;;;;;17.14;73.52;101478.06;5011593;28;20121;-77
2022/07/29 08:00:20;;;;;;;15.82;6.10;;;;;;;17.21;74.02;101480.06;5011593;28;20029;-77
2022/07/29 08:02:45;;;;;;;14.73;5.20;;;;;;;17.29;73.77;101476.63;5010348;28;20021;-77
2022/07/29 08:05:16;;;;;;;15.27;5.35;;;;;;;17.39;74.45;101477.50;5013188;28;20037;-77
2022/07/29 08:07:41;;;;;;;15.13;5.57;;;;;;;17.47;72.76;101490.41;5013817;28;20500;-77
2022/07/29 08:10:07;;;;;;;14.35;5.63;;;;;;;17.54;71.72;101479.78;5015051;28;20021;-77
2022/07/29 08:12:33;;;;;;;17.70;6.40;;;;;;;17.56;72.05;101486.81;5014865;28;20033;-77
2022/07/29 08:14:58;;;;;;;16.00;5.85;;;;;;;17.62;72.51;101482.66;5014960;28;20478;-77
2022/07/29 08:17:23;;;;;;;19.50;6.35;;;;;;;17.69;72.87;101483.81;5013327;28;20080;-77
2022/07/29 08:19:49;;;;;;;19.38;6.25;;;;;;;17.72;72.00;101482.69;5014781;28;20054;-77
2022/07/29 08:22:14;;;;;;;20.95;7.75;;;;;;;17.71;69.44;101498.09;5013434;28;20443;-77
2022/07/29 08:24:43;;;;;;;19.13;6.50;;;;;;;17.80;71.07;101491.84;5030035;28;20018;-77
2022/07/29 08:27:09;;;;;;;15.75;5.57;;;;;;;17.88;70.88;101492.94;5014651;28;20087;-77
2022/07/29 08:29:35;;;;;;;18.50;6.57;;;;;;;17.93;70.40;101498.84;5014478;28;20049;-77
2022/07/29 08:32:01;;;;;;;19.40;6.03;;;;;;;17.99;71.73;101492.81;5034171;28;20481;-77
2022/07/29 08:34:27;;;;;;;17.80;6.85;;;;;;;18.04;70.41;101503.25;5034294;28;20481;-77
2022/07/29 08:36:52;;;;;;;19.08;7.60;;;;;;;18.07;70.45;101501.13;5034130;28;20029;-77
2022/07/29 08:39:17;;;;;;;17.83;6.68;;;;;;;18.14;69.96;101498.66;5033019;28;20393;-77
2022/07/29 08:41:43;;;;;;;16.45;6.00;;;;;;;18.21;70.14;101501.66;5034318;28;20022;-77
2022/07/29 08:44:08;;;;;;;16.55;6.45;;;;;;;18.27;69.51;101504.69;5034304;28;20018;-77
2022/07/29 08:46:38;;;;;;;18.08;6.25;;;;;;;18.33;68.79;101497.75;5032962;28;20025;-77
2022/07/29 08:49:03;;;;;;;;;;;;;;;18.43;69.43;101500.47;5032044;28;20022;-74
2022/07/29 08:51:30;;;;;;;17.87;6.23;;;;;;;18.43;68.84;101504.03;5031267;28;20453;-74
2022/07/29 08:53:56;;;;;;;16.23;6.00;;;;;;;18.49;69.45;101498.00;5033769;28;20284;-75
2022/07/29 08:56:21;;;;;;;18.48;6.25;;;;;;;18.54;68.29;101500.28;5034302;28;20013;-74
2022/07/29 08:58:48;;;;;;;16.20;6.20;;;;;;;18.55;65.80;101499.28;5033449;28;20036;-75
2022/07/29 09:01:16;;;;;;;18.42;5.95;;;;;;;18.59;65.04;101494.38;5032692;28;20030;-75
2022/07/29 09:03:44;;;;;;;20.05;5.55;;;;;;;18.66;67.41;101493.63;5033581;28;20103;-75
2022/07/29 09:06:13;;;;;;;15.40;5.70;;;;;;;18.72;66.52;101491.34;5031543;28;20040;-75
2022/07/29 09:08:39;;;;;;;17.95;6.07;;;;;;;18.76;67.07;101488.16;5033421;28;20029;-76
2022/07/29 09:11:04;;;;;;;13.93;4.78;;;;;;;18.78;68.83;101490.72;5028853;28;20025;-76
2022/07/29 09:13:29;;;;;;;17.95;6.32;;;;;;;18.82;68.77;101493.00;5030858;28;20037;-76
2022/07/29 09:15:54;;;;;;;17.85;6.85;;;;;;;18.86;68.31;101494.44;5034176;28;20021;-76
2022/07/29 09:18:58;;;;;;;14.48;5.75;;;;;;;18.93;68.76;101493.81;5031301;28;20037;-76
2022/07/29 09:24:07;;;;;;;12.27;4.47;;;;;;;19.02;67.92;101488.34;5047840;28;20040;-76
2022/07/29 09:26:44;;;;;;;15.20;5.10;;;;;;;19.05;67.43;101498.06;5027326;28;20045;-76
2022/07/29 09:29:14;;;;;;;17.88;5.38;;;;;;;19.11;67.12;101497.47;5034101;28;20049;-76
2022/07/29 09:31:42;;;;;;;15.50;5.22;;;;;;;19.15;66.49;101504.31;5023631;28;20108;-76
2022/07/29 09:34:09;;;;;;;9.90;3.47;;;;;;;19.14;68.71;101505.31;5035622;28;20029;-76
2022/07/29 09:36:46;;;;;;;9.10;3.92;;;;;;;19.19;66.35;101502.97;5026399;28;20034;-76
2022/07/29 09:39:12;;;;;;;10.80;4.10;;;;;;;19.28;65.81;101508.53;5012362;28;20038;-76
2022/07/29 09:41:45;;;;;;;16.10;5.28;;;;;;;19.31;64.49;101510.94;5012661;28;20029;-76
2022/07/29 09:44:11;;;;;;;11.98;4.82;;;;;;;19.41;65.48;101500.84;5029111;28;20029;-76
2022/07/29 09:46:36;;;;;;;13.52;4.60;;;;;;;19.48;63.87;101501.94;5012371;28;20513;-76
2022/07/29 09:49:09;;;;;;;17.65;5.40;;;;;;;19.60;63.31;101498.97;5024451;28;20025;-76
2022/07/29 09:51:35;;;;;;;13.30;5.10;;;;;;;19.63;62.96;101495.94;5029333;28;20088;-76
2022/07/29 09:54:03;;;;;;;15.63;4.78;;;;;;;19.69;63.41;101498.03;5031265;28;20052;-76
2022/07/29 09:56:39;;;;;;;12.88;3.80;;;;;;;19.71;65.16;101496.88;5028529;28;20025;-76
2022/07/29 09:59:06;;;;;;;9.45;3.08;;;;;;;19.70;66.90;101499.75;5029382;28;20025;-76
2022/07/29 10:01:31;;;;;;;8.15;3.35;;;;;;;19.73;63.94;101502.16;5031095;28;20083;-76
2022/07/29 10:03:57;;;;;;;7.53;3.17;;;;;;;19.78;62.19;101498.97;5029889;28;20025;-76
2022/07/29 10:06:22;;;;;;;15.50;4.50;;;;;;;19.85;62.15;101495.47;5030302;28;20030;-76
2022/07/29 10:08:49;;;;;;;15.95;4.68;;;;;;;19.96;61.39;101493.53;5028211;28;20029;-77
2022/07/29 10:11:16;;;;;;;8.30;3.17;;;;;;;19.92;65.14;101489.41;5030142;28;20135;-77
2022/07/29 10:13:45;;;;;;;13.55;4.68;;;;;;;20.02;60.35;101495.63;5029863;28;20032;-77
2022/07/29 10:16:12;;;;;;;11.65;4.03;;;;;;;20.06;57.87;101494.31;5029330;28;20125;-77
2022/07/29 10:18:39;;;;;;;8.13;2.92;;;;;;;20.06;60.73;101497.88;5030116;28;20037;-77
2022/07/29 10:21:04;;;;;;;5.15;2.88;;;;;;;20.08;62.96;101492.25;5034548;28;20067;-77
2022/07/29 10:23:30;;;;;;;10.60;4.07;;;;;;;20.13;61.89;101492.63;5029402;28;20061;-77
2022/07/29 10:25:56;;;;;;;9.88;3.42;;;;;;;20.13;61.70;101489.88;5029238;28;20017;-76
2022/07/29 10:28:21;;;;;;;10.50;3.92;;;;;;;20.23;59.57;101495.25;5029833;28;20103;-76
2022/07/29 10:30:50;;;;;;;11.45;3.35;;;;;;;20.28;60.58;101483.84;5030287;28;20039;-76
2022/07/29 10:33:18;;;;;;;7.65;2.75;;;;;;;20.28;61.56;101490.19;5027319;28;20033;-76
2022/07/29 10:36:01;;;;;;;9.68;3.72;;;;;;;20.43;61.06;101491.28;5031596;28;20040;-76
2022/07/29 10:38:42;;;;;;;11.48;3.70;;;;;;;20.55;57.67;101485.56;5040456;28;20393;-76
2022/07/29 10:41:34;;;;;;;12.20;3.67;;;;;;;20.70;59.74;101489.41;5043377;28;20507;-76
2022/07/29 10:44:01;;;;;;;13.68;4.63;;;;;;;20.78;59.26;101480.41;5032544;28;20393;-76
2022/07/29 10:46:28;;;;;;;15.18;4.75;;;;;;;20.87;57.92;101484.03;5029616;28;20513;-76
2022/07/29 10:49:15;;;;;;;9.68;2.90;;;;;;;20.87;59.24;101481.28;5028325;28;20033;-76
2022/07/29 10:52:00;;;;;;;17.10;3.90;;;;;;;20.95;58.10;101479.44;5029672;28;20474;-75
2022/07/29 10:54:39;;;;;;;10.57;3.35;;;;;;;21.02;56.49;101474.16;5047364;28;20021;-76
2022/07/29 10:57:13;;;;;;;11.95;3.30;;;;;;;21.01;59.91;101477.06;5026523;28;20038;-76
2022/07/29 10:59:39;;;;;;;11.45;4.13;;;;;;;21.08;56.88;101480.84;5028872;28;20393;-76
2022/07/29 11:02:32;;;;;;;14.65;4.07;;;;;;;21.09;58.70;101483.41;5029990;28;20057;-76
2022/07/29 11:04:57;;;;;;;12.00;3.63;;;;;;;21.10;58.31;101487.84;5028432;28;20071;-76
2022/07/29 11:07:23;;;;;;;11.23;4.03;;;;;;;21.17;57.19;101485.28;5028675;28;20469;-76
2022/07/29 11:10:13;;;;;;;8.63;3.15;;;;;;;21.15;59.17;101492.81;5030075;28;20039;-76
2022/07/29 11:12:38;;;;;;;11.80;4.03;;;;;;;21.13;57.68;101478.47;5030039;28;20378;-76
2022/07/29 11:15:05;;;;;;;12.23;3.92;;;;;;;21.15;58.79;101487.34;5029857;28;20099;-76
2022/07/29 11:17:52;;;;;;;9.75;3.33;;;;;;;21.17;58.83;101478.97;5029841;28;20022;-76
2022/07/29 11:20:39;;;;;;;8.57;3.10;;;;;;;21.17;59.02;101484.44;5026292;28;20029;-76
2022/07/29 11:23:24;;;;;;;11.43;5.30;;;;;;;21.20;56.16;101486.84;5030226;28;20503;-76
2022/07/29 11:26:26;;;;;;;8.18;3.00;;;;;;;21.19;58.87;101483.28;5030461;28;20040;-76
2022/07/29 11:29:15;;;;;;;18.98;4.25;;;;;;;21.29;56.99;101475.78;5007009;28;20703;-76